Terminal Aerodrome Forecast
Issued by NWS Sterling, VA

Current Version | Previous Version | Text Only | Print | Product List | Glossary Off
Versions: 1 2 3 4 5 6 7 8 9 10 11 12 13 14 15 16 17 18 19 20 21 22 23 24 25 26 27 28 29 30 31 32 33

000
FTUS41 KLWX 042335
TAFIAD
TAF
KIAD 042335Z 0500/0606 00000KT 3SM -RA MIFG OVC080
     FM050100 02004KT 2SM -RA BR OVC015
     FM050300 36005KT 2SM -RA BR OVC008
     FM050800 35008KT 1SM -SNPL OVC008
     FM051000 35014G21KT 1SM -SNPL BR OVC008
     FM051300 35010G17KT 1/2SM SN OVC004
     FM052000 35008KT 3SM -SN OVC020
     FM060000 32010KT P6SM SCT020 BKN070=

USA.gov is the U.S. government's official web portal to all federal, state and local government web resources and services.